sensor_id;sensor_type;location;lat;lon;timestamp;P1;durP1;ratioP1;P2;durP2;ratioP2
13967;SDS011;39536;52.198;9.920;2022-08-14T00:00:17;10.93;;;10.20;;
13967;SDS011;39536;52.198;9.920;2022-08-14T00:02:44;10.93;;;10.03;;
13967;SDS011;39536;52.198;9.920;2022-08-14T00:05:12;14.53;;;9.97;;
13967;SDS011;39536;52.198;9.920;2022-08-14T00:07:41;9.47;;;8.87;;
13967;SDS011;39536;52.198;9.920;2022-08-14T00:10:09;10.27;;;9.57;;
13967;SDS011;39536;52.198;9.920;2022-08-14T00:12:38;11.13;;;10.17;;
13967;SDS011;39536;52.198;9.920;2022-08-14T00:15:08;10.93;;;10.10;;
13967;SDS011;39536;52.198;9.920;2022-08-14T00:17:40;10.83;;;9.60;;
13967;SDS011;39536;52.198;9.920;2022-08-14T00:20:08;9.63;;;9.03;;
13967;SDS011;39536;52.198;9.920;2022-08-14T00:22:36;10.27;;;9.67;;
13967;SDS011;39536;52.198;9.920;2022-08-14T00:25:03;9.87;;;9.27;;
13967;SDS011;39536;52.198;9.920;2022-08-14T00:27:31;10.50;;;9.70;;
13967;SDS011;39536;52.198;9.920;2022-08-14T00:29:57;9.87;;;9.17;;
13967;SDS011;39536;52.198;9.920;2022-08-14T00:32:24;9.63;;;8.83;;
13967;SDS011;39536;52.198;9.920;2022-08-14T00:34:52;10.17;;;9.27;;
13967;SDS011;39536;52.198;9.920;2022-08-14T00:37:18;9.77;;;8.80;;
13967;SDS011;39536;52.198;9.920;2022-08-14T00:39:45;9.97;;;9.27;;
13967;SDS011;39536;52.198;9.920;2022-08-14T00:42:12;9.07;;;8.57;;
13967;SDS011;39536;52.198;9.920;2022-08-14T00:44:38;9.33;;;8.40;;
13967;SDS011;39536;52.198;9.920;2022-08-14T00:47:05;9.40;;;8.60;;
13967;SDS011;39536;52.198;9.920;2022-08-14T00:49:32;9.60;;;8.90;;
13967;SDS011;39536;52.198;9.920;2022-08-14T00:52:02;9.27;;;8.67;;
13967;SDS011;39536;52.198;9.920;2022-08-14T00:54:30;9.50;;;8.80;;
13967;SDS011;39536;52.198;9.920;2022-08-14T00:56:56;9.53;;;8.93;;
13967;SDS011;39536;52.198;9.920;2022-08-14T00:59:23;9.40;;;8.80;;
13967;SDS011;39536;52.198;9.920;2022-08-14T01:01:52;10.33;;;9.53;;
13967;SDS011;39536;52.198;9.920;2022-08-14T01:04:21;10.53;;;9.60;;
13967;SDS011;39536;52.198;9.920;2022-08-14T01:06:49;9.67;;;9.07;;
13967;SDS011;39536;52.198;9.920;2022-08-14T01:09:17;9.70;;;9.10;;
13967;SDS011;39536;52.198;9.920;2022-08-14T01:11:46;9.97;;;9.10;;
13967;SDS011;39536;52.198;9.920;2022-08-14T01:14:14;9.43;;;8.83;;
13967;SDS011;39536;52.198;9.920;2022-08-14T01:16:41;11.33;;;10.33;;
13967;SDS011;39536;52.198;9.920;2022-08-14T01:19:08;11.67;;;10.20;;
13967;SDS011;39536;52.198;9.920;2022-08-14T01:21:53;10.93;;;10.03;;
13967;SDS011;39536;52.198;9.920;2022-08-14T01:24:20;10.57;;;9.97;;
13967;SDS011;39536;52.198;9.920;2022-08-14T01:26:46;11.47;;;10.70;;
13967;SDS011;39536;52.198;9.920;2022-08-14T01:29:13;11.80;;;10.80;;
13967;SDS011;39536;52.198;9.920;2022-08-14T01:31:41;11.23;;;10.43;;
13967;SDS011;39536;52.198;9.920;2022-08-14T01:34:09;10.47;;;9.77;;
13967;SDS011;39536;52.198;9.920;2022-08-14T01:36:35;11.53;;;10.63;;
13967;SDS011;39536;52.198;9.920;2022-08-14T01:39:04;10.57;;;9.83;;
13967;SDS011;39536;52.198;9.920;2022-08-14T01:41:32;10.43;;;9.83;;
13967;SDS011;39536;52.198;9.920;2022-08-14T01:44:02;11.03;;;10.33;;
13967;SDS011;39536;52.198;9.920;2022-08-14T01:46:31;11.70;;;10.97;;
13967;SDS011;39536;52.198;9.920;2022-08-14T01:49:01;12.03;;;10.93;;
13967;SDS011;39536;52.198;9.920;2022-08-14T01:51:31;11.70;;;10.80;;
13967;SDS011;39536;52.198;9.920;2022-08-14T01:53:59;11.20;;;10.50;;
13967;SDS011;39536;52.198;9.920;2022-08-14T01:56:29;11.23;;;10.47;;
13967;SDS011;39536;52.198;9.920;2022-08-14T01:59:02;11.90;;;10.93;;
13967;SDS011;39536;52.198;9.920;2022-08-14T02:01:29;11.53;;;10.70;;
13967;SDS011;39536;52.198;9.920;2022-08-14T02:03:57;11.67;;;10.87;;
13967;SDS011;39536;52.198;9.920;2022-08-14T02:06:24;10.93;;;10.20;;
13967;SDS011;39536;52.198;9.920;2022-08-14T02:08:51;10.80;;;10.10;;
13967;SDS011;39536;52.198;9.920;2022-08-14T02:11:18;11.27;;;10.50;;
13967;SDS011;39536;52.198;9.920;2022-08-14T02:13:49;11.57;;;10.77;;
13967;SDS011;39536;52.198;9.920;2022-08-14T02:16:21;12.07;;;11.27;;
13967;SDS011;39536;52.198;9.920;2022-08-14T02:18:50;12.07;;;11.33;;
13967;SDS011;39536;52.198;9.920;2022-08-14T02:21:18;11.93;;;11.10;;
13967;SDS011;39536;52.198;9.920;2022-08-14T02:23:45;12.23;;;11.53;;
13967;SDS011;39536;52.198;9.920;2022-08-14T02:26:13;12.10;;;11.40;;
13967;SDS011;39536;52.198;9.920;2022-08-14T02:28:43;12.50;;;11.70;;
13967;SDS011;39536;52.198;9.920;2022-08-14T02:31:11;12.63;;;11.77;;
13967;SDS011;39536;52.198;9.920;2022-08-14T02:33:38;12.87;;;12.00;;
13967;SDS011;39536;52.198;9.920;2022-08-14T02:36:06;13.00;;;12.20;;
13967;SDS011;39536;52.198;9.920;2022-08-14T02:38:33;11.83;;;11.10;;
13967;SDS011;39536;52.198;9.920;2022-08-14T02:41:01;11.40;;;10.70;;
13967;SDS011;39536;52.198;9.920;2022-08-14T02:43:29;12.13;;;11.33;;
13967;SDS011;39536;52.198;9.920;2022-08-14T02:45:56;12.10;;;11.20;;
13967;SDS011;39536;52.198;9.920;2022-08-14T02:48:24;12.07;;;11.37;;
13967;SDS011;39536;52.198;9.920;2022-08-14T02:50:55;11.50;;;10.90;;
13967;SDS011;39536;52.198;9.920;2022-08-14T02:53:21;12.40;;;11.57;;
13967;SDS011;39536;52.198;9.920;2022-08-14T02:55:48;11.97;;;11.27;;
13967;SDS011;39536;52.198;9.920;2022-08-14T02:58:14;11.13;;;10.43;;
13967;SDS011;39536;52.198;9.920;2022-08-14T03:00:41;12.17;;;11.27;;
13967;SDS011;39536;52.198;9.920;2022-08-14T03:03:07;12.67;;;11.77;;
13967;SDS011;39536;52.198;9.920;2022-08-14T03:05:35;12.13;;;11.43;;
13967;SDS011;39536;52.198;9.920;2022-08-14T03:08:04;12.63;;;11.93;;
13967;SDS011;39536;52.198;9.920;2022-08-14T03:10:31;13.43;;;12.50;;
13967;SDS011;39536;52.198;9.920;2022-08-14T03:12:58;12.47;;;11.77;;
13967;SDS011;39536;52.198;9.920;2022-08-14T03:15:29;12.43;;;11.70;;
13967;SDS011;39536;52.198;9.920;2022-08-14T03:17:56;12.27;;;11.57;;
13967;SDS011;39536;52.198;9.920;2022-08-14T03:20:23;13.47;;;12.60;;
13967;SDS011;39536;52.198;9.920;2022-08-14T03:22:51;12.63;;;11.93;;
13967;SDS011;39536;52.198;9.920;2022-08-14T03:25:17;12.07;;;11.37;;
13967;SDS011;39536;52.198;9.920;2022-08-14T03:27:45;12.40;;;11.60;;
13967;SDS011;39536;52.198;9.920;2022-08-14T03:30:12;12.87;;;12.07;;
13967;SDS011;39536;52.198;9.920;2022-08-14T03:32:38;12.97;;;12.17;;
13967;SDS011;39536;52.198;9.920;2022-08-14T03:35:05;12.20;;;11.50;;
13967;SDS011;39536;52.198;9.920;2022-08-14T03:37:32;12.37;;;11.50;;
13967;SDS011;39536;52.198;9.920;2022-08-14T03:40:00;12.80;;;12.00;;
13967;SDS011;39536;52.198;9.920;2022-08-14T03:42:26;12.63;;;11.93;;
13967;SDS011;39536;52.198;9.920;2022-08-14T03:44:52;12.90;;;12.10;;
13967;SDS011;39536;52.198;9.920;2022-08-14T03:47:19;11.90;;;11.10;;
13967;SDS011;39536;52.198;9.920;2022-08-14T03:49:45;12.03;;;11.23;;
13967;SDS011;39536;52.198;9.920;2022-08-14T03:52:12;12.70;;;11.80;;
13967;SDS011;39536;52.198;9.920;2022-08-14T03:54:38;13.27;;;12.43;;
13967;SDS011;39536;52.198;9.920;2022-08-14T03:57:07;12.20;;;11.17;;
13967;SDS011;39536;52.198;9.920;2022-08-14T03:59:34;11.47;;;10.77;;
13967;SDS011;39536;52.198;9.920;2022-08-14T04:02:01;11.80;;;10.83;;
13967;SDS011;39536;52.198;9.920;2022-08-14T04:04:28;12.47;;;11.67;;
13967;SDS011;39536;52.198;9.920;2022-08-14T04:06:55;11.97;;;11.27;;
13967;SDS011;39536;52.198;9.920;2022-08-14T04:09:23;12.50;;;11.60;;
13967;SDS011;39536;52.198;9.920;2022-08-14T04:11:49;12.00;;;11.00;;
13967;SDS011;39536;52.198;9.920;2022-08-14T04:14:17;12.80;;;12.00;;
13967;SDS011;39536;52.198;9.920;2022-08-14T04:16:44;11.43;;;10.77;;
13967;SDS011;39536;52.198;9.920;2022-08-14T04:19:11;13.10;;;12.17;;
13967;SDS011;39536;52.198;9.920;2022-08-14T04:21:40;11.97;;;11.27;;
13967;SDS011;39536;52.198;9.920;2022-08-14T04:24:06;12.50;;;11.60;;
13967;SDS011;39536;52.198;9.920;2022-08-14T04:26:33;12.13;;;11.33;;
13967;SDS011;39536;52.198;9.920;2022-08-14T04:28:59;13.20;;;12.00;;
13967;SDS011;39536;52.198;9.920;2022-08-14T04:31:28;12.77;;;12.07;;
13967;SDS011;39536;52.198;9.920;2022-08-14T04:33:55;12.60;;;11.57;;
13967;SDS011;39536;52.198;9.920;2022-08-14T04:36:21;12.20;;;11.30;;
13967;SDS011;39536;52.198;9.920;2022-08-14T04:38:48;12.80;;;11.90;;
13967;SDS011;39536;52.198;9.920;2022-08-14T04:41:43;12.23;;;11.43;;
13967;SDS011;39536;52.198;9.920;2022-08-14T04:44:27;11.57;;;10.97;;
13967;SDS011;39536;52.198;9.920;2022-08-14T04:46:55;12.47;;;11.67;;
13967;SDS011;39536;52.198;9.920;2022-08-14T04:49:50;11.77;;;10.97;;
13967;SDS011;39536;52.198;9.920;2022-08-14T04:52:17;13.17;;;12.00;;
13967;SDS011;39536;52.198;9.920;2022-08-14T04:54:43;12.57;;;11.83;;
13967;SDS011;39536;52.198;9.920;2022-08-14T04:57:10;12.10;;;11.20;;
13967;SDS011;39536;52.198;9.920;2022-08-14T04:59:37;11.87;;;10.90;;
13967;SDS011;39536;52.198;9.920;2022-08-14T05:02:05;12.10;;;10.97;;
13967;SDS011;39536;52.198;9.920;2022-08-14T05:04:31;11.87;;;11.17;;
13967;SDS011;39536;52.198;9.920;2022-08-14T05:06:58;11.27;;;10.57;;
13967;SDS011;39536;52.198;9.920;2022-08-14T05:09:25;11.33;;;10.63;;
13967;SDS011;39536;52.198;9.920;2022-08-14T05:11:51;11.30;;;10.37;;
13967;SDS011;39536;52.198;9.920;2022-08-14T05:14:18;11.00;;;10.07;;
13967;SDS011;39536;52.198;9.920;2022-08-14T05:16:46;11.87;;;10.63;;
13967;SDS011;39536;52.198;9.920;2022-08-14T05:19:15;11.97;;;11.07;;
13967;SDS011;39536;52.198;9.920;2022-08-14T05:21:42;11.60;;;10.90;;
13967;SDS011;39536;52.198;9.920;2022-08-14T05:24:08;12.03;;;10.87;;
13967;SDS011;39536;52.198;9.920;2022-08-14T05:26:36;11.10;;;10.43;;
13967;SDS011;39536;52.198;9.920;2022-08-14T05:29:05;12.13;;;11.13;;
13967;SDS011;39536;52.198;9.920;2022-08-14T05:31:34;11.80;;;11.10;;
13967;SDS011;39536;52.198;9.920;2022-08-14T05:34:04;12.27;;;11.37;;
13967;SDS011;39536;52.198;9.920;2022-08-14T05:36:33;12.70;;;11.60;;
13967;SDS011;39536;52.198;9.920;2022-08-14T05:38:59;13.20;;;12.40;;
13967;SDS011;39536;52.198;9.920;2022-08-14T05:41:26;12.77;;;11.97;;
13967;SDS011;39536;52.198;9.920;2022-08-14T05:43:52;12.10;;;11.30;;
13967;SDS011;39536;52.198;9.920;2022-08-14T05:46:19;11.53;;;10.90;;
13967;SDS011;39536;52.198;9.920;2022-08-14T05:48:46;12.57;;;11.60;;
13967;SDS011;39536;52.198;9.920;2022-08-14T05:51:14;11.03;;;10.43;;
13967;SDS011;39536;52.198;9.920;2022-08-14T05:53:41;11.67;;;10.90;;
13967;SDS011;39536;52.198;9.920;2022-08-14T05:56:08;12.63;;;11.37;;
13967;SDS011;39536;52.198;9.920;2022-08-14T05:58:35;13.07;;;11.93;;
13967;SDS011;39536;52.198;9.920;2022-08-14T06:01:01;12.63;;;11.83;;
13967;SDS011;39536;52.198;9.920;2022-08-14T06:03:28;12.17;;;11.47;;
13967;SDS011;39536;52.198;9.920;2022-08-14T06:05:54;11.70;;;11.00;;
13967;SDS011;39536;52.198;9.920;2022-08-14T06:08:22;12.37;;;11.57;;
13967;SDS011;39536;52.198;9.920;2022-08-14T06:10:51;13.47;;;12.37;;
13967;SDS011;39536;52.198;9.920;2022-08-14T06:13:19;12.67;;;11.67;;
13967;SDS011;39536;52.198;9.920;2022-08-14T06:15:46;12.20;;;11.40;;
13967;SDS011;39536;52.198;9.920;2022-08-14T06:18:14;12.67;;;11.40;;
13967;SDS011;39536;52.198;9.920;2022-08-14T06:20:42;11.60;;;10.80;;
13967;SDS011;39536;52.198;9.920;2022-08-14T06:23:08;12.30;;;11.17;;
13967;SDS011;39536;52.198;9.920;2022-08-14T06:25:35;12.07;;;11.20;;
13967;SDS011;39536;52.198;9.920;2022-08-14T06:28:03;12.00;;;10.70;;
13967;SDS011;39536;52.198;9.920;2022-08-14T06:30:30;11.40;;;10.70;;
13967;SDS011;39536;52.198;9.920;2022-08-14T06:32:58;10.97;;;10.27;;
13967;SDS011;39536;52.198;9.920;2022-08-14T06:35:24;10.67;;;10.07;;
13967;SDS011;39536;52.198;9.920;2022-08-14T06:37:52;11.53;;;10.47;;
13967;SDS011;39536;52.198;9.920;2022-08-14T06:40:20;11.53;;;10.63;;
13967;SDS011;39536;52.198;9.920;2022-08-14T06:42:47;11.47;;;10.60;;
13967;SDS011;39536;52.198;9.920;2022-08-14T06:45:16;11.13;;;10.43;;
13967;SDS011;39536;52.198;9.920;2022-08-14T06:47:43;10.50;;;9.90;;
13967;SDS011;39536;52.198;9.920;2022-08-14T06:50:11;10.47;;;9.77;;
13967;SDS011;39536;52.198;9.920;2022-08-14T06:52:39;9.43;;;8.87;;
13967;SDS011;39536;52.198;9.920;2022-08-14T06:55:07;10.10;;;9.50;;
13967;SDS011;39536;52.198;9.920;2022-08-14T06:57:36;11.70;;;10.10;;
13967;SDS011;39536;52.198;9.920;2022-08-14T07:00:05;9.70;;;9.13;;
13967;SDS011;39536;52.198;9.920;2022-08-14T07:02:34;10.67;;;10.07;;
13967;SDS011;39536;52.198;9.920;2022-08-14T07:05:18;10.83;;;9.80;;
13967;SDS011;39536;52.198;9.920;2022-08-14T07:08:03;10.90;;;10.10;;
13967;SDS011;39536;52.198;9.920;2022-08-14T07:10:30;10.27;;;9.57;;
13967;SDS011;39536;52.198;9.920;2022-08-14T07:12:57;9.97;;;9.37;;
13967;SDS011;39536;52.198;9.920;2022-08-14T07:15:24;10.33;;;9.73;;
13967;SDS011;39536;52.198;9.920;2022-08-14T07:17:52;10.50;;;9.90;;
13967;SDS011;39536;52.198;9.920;2022-08-14T07:20:19;11.10;;;10.13;;
13967;SDS011;39536;52.198;9.920;2022-08-14T07:22:45;10.73;;;9.87;;
13967;SDS011;39536;52.198;9.920;2022-08-14T07:25:12;10.77;;;10.10;;
13967;SDS011;39536;52.198;9.920;2022-08-14T07:27:39;10.63;;;9.70;;
13967;SDS011;39536;52.198;9.920;2022-08-14T07:30:06;12.23;;;10.90;;
13967;SDS011;39536;52.198;9.920;2022-08-14T07:32:34;10.47;;;9.80;;
13967;SDS011;39536;52.198;9.920;2022-08-14T07:35:02;11.43;;;10.73;;
13967;SDS011;39536;52.198;9.920;2022-08-14T07:37:28;10.87;;;10.17;;
13967;SDS011;39536;52.198;9.920;2022-08-14T07:39:55;10.77;;;10.17;;
13967;SDS011;39536;52.198;9.920;2022-08-14T07:42:21;10.67;;;9.97;;
13967;SDS011;39536;52.198;9.920;2022-08-14T07:44:48;10.87;;;10.27;;
13967;SDS011;39536;52.198;9.920;2022-08-14T07:47:14;11.43;;;10.53;;
13967;SDS011;39536;52.198;9.920;2022-08-14T07:49:41;10.97;;;10.23;;
13967;SDS011;39536;52.198;9.920;2022-08-14T07:52:13;10.80;;;10.20;;
13967;SDS011;39536;52.198;9.920;2022-08-14T07:54:40;10.90;;;10.10;;
13967;SDS011;39536;52.198;9.920;2022-08-14T07:57:06;10.67;;;9.87;;
13967;SDS011;39536;52.198;9.920;2022-08-14T07:59:32;10.40;;;9.80;;
13967;SDS011;39536;52.198;9.920;2022-08-14T08:01:59;11.47;;;10.73;;
13967;SDS011;39536;52.198;9.920;2022-08-14T08:04:25;11.47;;;10.67;;
13967;SDS011;39536;52.198;9.920;2022-08-14T08:06:54;11.70;;;10.17;;
13967;SDS011;39536;52.198;9.920;2022-08-14T08:09:23;11.63;;;10.67;;
13967;SDS011;39536;52.198;9.920;2022-08-14T08:11:51;10.60;;;10.00;;
13967;SDS011;39536;52.198;9.920;2022-08-14T08:14:19;11.83;;;10.80;;
13967;SDS011;39536;52.198;9.920;2022-08-14T08:16:45;11.33;;;10.53;;
13967;SDS011;39536;52.198;9.920;2022-08-14T08:19:13;12.30;;;11.50;;
13967;SDS011;39536;52.198;9.920;2022-08-14T08:21:42;11.10;;;10.40;;
13967;SDS011;39536;52.198;9.920;2022-08-14T08:24:09;11.63;;;10.87;;
13967;SDS011;39536;52.198;9.920;2022-08-14T08:26:37;11.70;;;11.10;;
13967;SDS011;39536;52.198;9.920;2022-08-14T08:29:03;11.60;;;10.90;;
13967;SDS011;39536;52.198;9.920;2022-08-14T08:31:30;11.17;;;10.33;;
13967;SDS011;39536;52.198;9.920;2022-08-14T08:33:56;11.23;;;10.63;;
13967;SDS011;39536;52.198;9.920;2022-08-14T08:36:23;11.73;;;11.03;;
13967;SDS011;39536;52.198;9.920;2022-08-14T08:38:49;10.83;;;10.33;;
13967;SDS011;39536;52.198;9.920;2022-08-14T08:41:16;10.73;;;10.13;;
13967;SDS011;39536;52.198;9.920;2022-08-14T08:43:43;10.30;;;9.60;;
13967;SDS011;39536;52.198;9.920;2022-08-14T08:46:10;11.87;;;11.07;;
13967;SDS011;39536;52.198;9.920;2022-08-14T08:48:43;11.50;;;10.83;;
13967;SDS011;39536;52.198;9.920;2022-08-14T08:51:18;10.77;;;10.17;;
13967;SDS011;39536;52.198;9.920;2022-08-14T08:53:54;10.70;;;10.03;;
13967;SDS011;39536;52.198;9.920;2022-08-14T08:56:31;11.07;;;10.47;;
13967;SDS011;39536;52.198;9.920;2022-08-14T08:59:00;10.73;;;10.03;;
13967;SDS011;39536;52.198;9.920;2022-08-14T09:01:27;9.87;;;9.37;;
13967;SDS011;39536;52.198;9.920;2022-08-14T09:04:00;10.90;;;10.20;;
13967;SDS011;39536;52.198;9.920;2022-08-14T09:06:26;10.23;;;9.47;;
13967;SDS011;39536;52.198;9.920;2022-08-14T09:08:53;10.30;;;9.70;;
13967;SDS011;39536;52.198;9.920;2022-08-14T09:11:19;9.93;;;9.43;;
13967;SDS011;39536;52.198;9.920;2022-08-14T09:13:48;9.50;;;9.00;;
13967;SDS011;39536;52.198;9.920;2022-08-14T09:16:18;10.30;;;9.63;;
13967;SDS011;39536;52.198;9.920;2022-08-14T09:18:45;9.87;;;9.27;;
13967;SDS011;39536;52.198;9.920;2022-08-14T09:21:12;9.77;;;9.23;;
13967;SDS011;39536;52.198;9.920;2022-08-14T09:23:38;9.33;;;8.83;;
13967;SDS011;39536;52.198;9.920;2022-08-14T09:26:06;9.30;;;8.60;;
13967;SDS011;39536;52.198;9.920;2022-08-14T09:28:32;9.70;;;9.17;;
13967;SDS011;39536;52.198;9.920;2022-08-14T09:30:59;9.43;;;8.93;;
13967;SDS011;39536;52.198;9.920;2022-08-14T09:33:42;10.17;;;9.50;;
13967;SDS011;39536;52.198;9.920;2022-08-14T09:36:33;9.80;;;9.20;;
13967;SDS011;39536;52.198;9.920;2022-08-14T09:39:06;9.43;;;8.93;;
13967;SDS011;39536;52.198;9.920;2022-08-14T09:41:46;9.27;;;8.70;;
13967;SDS011;39536;52.198;9.920;2022-08-14T09:44:28;9.17;;;8.67;;
13967;SDS011;39536;52.198;9.920;2022-08-14T09:47:06;9.77;;;9.13;;
13967;SDS011;39536;52.198;9.920;2022-08-14T09:49:36;9.07;;;8.57;;
13967;SDS011;39536;52.198;9.920;2022-08-14T09:52:07;9.33;;;8.73;;
13967;SDS011;39536;52.198;9.920;2022-08-14T09:54:36;9.63;;;9.03;;
13967;SDS011;39536;52.198;9.920;2022-08-14T09:57:03;10.27;;;9.37;;
13967;SDS011;39536;52.198;9.920;2022-08-14T09:59:38;9.60;;;9.10;;
13967;SDS011;39536;52.198;9.920;2022-08-14T10:02:16;9.70;;;9.10;;
13967;SDS011;39536;52.198;9.920;2022-08-14T10:04:47;9.90;;;9.30;;
13967;SDS011;39536;52.198;9.920;2022-08-14T10:07:28;8.63;;;8.13;;
13967;SDS011;39536;52.198;9.920;2022-08-14T10:09:55;9.57;;;9.07;;
13967;SDS011;39536;52.198;9.920;2022-08-14T10:12:22;9.93;;;9.23;;
13967;SDS011;39536;52.198;9.920;2022-08-14T10:14:48;9.00;;;8.50;;
13967;SDS011;39536;52.198;9.920;2022-08-14T10:17:20;9.50;;;9.00;;
13967;SDS011;39536;52.198;9.920;2022-08-14T10:19:50;9.70;;;9.07;;
13967;SDS011;39536;52.198;9.920;2022-08-14T10:22:22;9.30;;;8.80;;
13967;SDS011;39536;52.198;9.920;2022-08-14T10:24:54;9.00;;;8.50;;
13967;SDS011;39536;52.198;9.920;2022-08-14T10:27:21;9.07;;;8.57;;
13967;SDS011;39536;52.198;9.920;2022-08-14T10:29:50;8.67;;;8.27;;
13967;SDS011;39536;52.198;9.920;2022-08-14T10:32:18;8.57;;;8.03;;
13967;SDS011;39536;52.198;9.920;2022-08-14T10:34:46;9.10;;;8.60;;
13967;SDS011;39536;52.198;9.920;2022-08-14T10:37:15;10.30;;;9.53;;
13967;SDS011;39536;52.198;9.920;2022-08-14T10:39:43;9.20;;;8.70;;
13967;SDS011;39536;52.198;9.920;2022-08-14T10:42:11;9.47;;;8.73;;
13967;SDS011;39536;52.198;9.920;2022-08-14T10:44:40;9.07;;;8.47;;
13967;SDS011;39536;52.198;9.920;2022-08-14T10:47:10;9.03;;;8.53;;
13967;SDS011;39536;52.198;9.920;2022-08-14T10:49:38;9.00;;;8.40;;
13967;SDS011;39536;52.198;9.920;2022-08-14T10:52:19;8.80;;;8.20;;
13967;SDS011;39536;52.198;9.920;2022-08-14T10:54:48;9.67;;;8.97;;
13967;SDS011;39536;52.198;9.920;2022-08-14T10:57:19;8.93;;;8.43;;
13967;SDS011;39536;52.198;9.920;2022-08-14T10:59:47;8.27;;;7.77;;
13967;SDS011;39536;52.198;9.920;2022-08-14T11:02:22;9.27;;;8.67;;
13967;SDS011;39536;52.198;9.920;2022-08-14T11:04:57;8.90;;;8.40;;
13967;SDS011;39536;52.198;9.920;2022-08-14T11:07:30;9.23;;;8.63;;
13967;SDS011;39536;52.198;9.920;2022-08-14T11:09:58;9.67;;;9.07;;
13967;SDS011;39536;52.198;9.920;2022-08-14T11:12:26;9.40;;;8.83;;
13967;SDS011;39536;52.198;9.920;2022-08-14T11:15:05;9.47;;;8.97;;
13967;SDS011;39536;52.198;9.920;2022-08-14T11:17:32;9.47;;;8.67;;
13967;SDS011;39536;52.198;9.920;2022-08-14T11:20:00;9.27;;;8.67;;
13967;SDS011;39536;52.198;9.920;2022-08-14T11:22:32;9.37;;;8.87;;
13967;SDS011;39536;52.198;9.920;2022-08-14T11:24:59;9.50;;;8.90;;
13967;SDS011;39536;52.198;9.920;2022-08-14T11:27:31;9.27;;;8.77;;
13967;SDS011;39536;52.198;9.920;2022-08-14T11:29:59;9.33;;;8.83;;
13967;SDS011;39536;52.198;9.920;2022-08-14T11:32:27;9.47;;;8.67;;
13967;SDS011;39536;52.198;9.920;2022-08-14T11:34:55;9.03;;;8.53;;
13967;SDS011;39536;52.198;9.920;2022-08-14T11:37:21;9.47;;;8.73;;
13967;SDS011;39536;52.198;9.920;2022-08-14T11:39:49;9.80;;;9.10;;
13967;SDS011;39536;52.198;9.920;2022-08-14T11:42:19;9.43;;;8.73;;
13967;SDS011;39536;52.198;9.920;2022-08-14T11:44:47;9.77;;;9.17;;
13967;SDS011;39536;52.198;9.920;2022-08-14T11:47:14;8.20;;;7.80;;
13967;SDS011;39536;52.198;9.920;2022-08-14T11:49:43;9.03;;;8.53;;
13967;SDS011;39536;52.198;9.920;2022-08-14T11:52:10;9.60;;;9.10;;
13967;SDS011;39536;52.198;9.920;2022-08-14T11:54:37;9.20;;;8.70;;
13967;SDS011;39536;52.198;9.920;2022-08-14T11:57:06;9.00;;;8.30;;
13967;SDS011;39536;52.198;9.920;2022-08-14T11:59:38;9.30;;;8.60;;
13967;SDS011;39536;52.198;9.920;2022-08-14T12:02:12;9.10;;;8.57;;
13967;SDS011;39536;52.198;9.920;2022-08-14T12:04:55;9.30;;;8.70;;
13967;SDS011;39536;52.198;9.920;2022-08-14T12:07:21;9.03;;;8.53;;
13967;SDS011;39536;52.198;9.920;2022-08-14T12:09:50;8.77;;;8.27;;
13967;SDS011;39536;52.198;9.920;2022-08-14T12:12:21;8.50;;;7.93;;
13967;SDS011;39536;52.198;9.920;2022-08-14T12:14:50;9.80;;;8.57;;
13967;SDS011;39536;52.198;9.920;2022-08-14T12:17:20;9.67;;;9.07;;
13967;SDS011;39536;52.198;9.920;2022-08-14T12:19:48;9.23;;;8.73;;
13967;SDS011;39536;52.198;9.920;2022-08-14T12:22:16;8.93;;;8.43;;
13967;SDS011;39536;52.198;9.920;2022-08-14T12:24:43;8.90;;;8.20;;
13967;SDS011;39536;52.198;9.920;2022-08-14T12:27:09;9.23;;;8.63;;
13967;SDS011;39536;52.198;9.920;2022-08-14T12:29:39;8.97;;;8.37;;
13967;SDS011;39536;52.198;9.920;2022-08-14T12:32:16;8.50;;;8.00;;
13967;SDS011;39536;52.198;9.920;2022-08-14T12:34:43;9.20;;;8.60;;
13967;SDS011;39536;52.198;9.920;2022-08-14T12:37:18;9.50;;;8.90;;
13967;SDS011;39536;52.198;9.920;2022-08-14T12:39:53;10.17;;;9.43;;
13967;SDS011;39536;52.198;9.920;2022-08-14T12:42:20;9.70;;;9.07;;
13967;SDS011;39536;52.198;9.920;2022-08-14T12:44:49;9.33;;;8.83;;
13967;SDS011;39536;52.198;9.920;2022-08-14T12:47:16;8.77;;;8.27;;
13967;SDS011;39536;52.198;9.920;2022-08-14T12:49:47;9.30;;;8.70;;
13967;SDS011;39536;52.198;9.920;2022-08-14T12:52:16;9.47;;;8.97;;
13967;SDS011;39536;52.198;9.920;2022-08-14T12:54:55;9.87;;;9.27;;
13967;SDS011;39536;52.198;9.920;2022-08-14T12:57:31;9.80;;;9.27;;
13967;SDS011;39536;52.198;9.920;2022-08-14T13:00:09;10.50;;;9.70;;
13967;SDS011;39536;52.198;9.920;2022-08-14T13:02:38;9.90;;;9.13;;
13967;SDS011;39536;52.198;9.920;2022-08-14T13:05:06;10.00;;;9.33;;
13967;SDS011;39536;52.198;9.920;2022-08-14T13:07:34;9.47;;;8.97;;
13967;SDS011;39536;52.198;9.920;2022-08-14T13:10:04;9.20;;;8.60;;
13967;SDS011;39536;52.198;9.920;2022-08-14T13:12:32;9.77;;;9.20;;
13967;SDS011;39536;52.198;9.920;2022-08-14T13:14:58;9.23;;;8.70;;
13967;SDS011;39536;52.198;9.920;2022-08-14T13:17:26;9.20;;;8.70;;
13967;SDS011;39536;52.198;9.920;2022-08-14T13:19:54;9.63;;;9.13;;
13967;SDS011;39536;52.198;9.920;2022-08-14T13:22:22;9.73;;;9.13;;
13967;SDS011;39536;52.198;9.920;2022-08-14T13:24:52;10.03;;;9.43;;
13967;SDS011;39536;52.198;9.920;2022-08-14T13:27:19;9.57;;;9.07;;
13967;SDS011;39536;52.198;9.920;2022-08-14T13:29:47;9.40;;;8.90;;
13967;SDS011;39536;52.198;9.920;2022-08-14T13:32:16;8.63;;;8.13;;
13967;SDS011;39536;52.198;9.920;2022-08-14T13:34:44;8.80;;;8.20;;
13967;SDS011;39536;52.198;9.920;2022-08-14T13:37:14;8.70;;;8.10;;
13967;SDS011;39536;52.198;9.920;2022-08-14T13:39:43;9.17;;;8.60;;
13967;SDS011;39536;52.198;9.920;2022-08-14T13:42:12;8.97;;;8.47;;
13967;SDS011;39536;52.198;9.920;2022-08-14T13:44:40;9.10;;;8.60;;
13967;SDS011;39536;52.198;9.920;2022-08-14T13:47:07;8.40;;;7.97;;
13967;SDS011;39536;52.198;9.920;2022-08-14T13:49:33;9.07;;;8.47;;
13967;SDS011;39536;52.198;9.920;2022-08-14T13:52:03;8.87;;;8.27;;
13967;SDS011;39536;52.198;9.920;2022-08-14T13:54:29;7.80;;;7.37;;
13967;SDS011;39536;52.198;9.920;2022-08-14T13:56:59;9.07;;;8.57;;
13967;SDS011;39536;52.198;9.920;2022-08-14T13:59:27;8.63;;;8.03;;
13967;SDS011;39536;52.198;9.920;2022-08-14T14:01:56;8.80;;;8.23;;
13967;SDS011;39536;52.198;9.920;2022-08-14T14:04:28;8.70;;;8.10;;
13967;SDS011;39536;52.198;9.920;2022-08-14T14:06:55;8.80;;;8.20;;
13967;SDS011;39536;52.198;9.920;2022-08-14T14:09:28;8.30;;;7.80;;
13967;SDS011;39536;52.198;9.920;2022-08-14T14:11:57;8.80;;;8.30;;
13967;SDS011;39536;52.198;9.920;2022-08-14T14:14:24;8.33;;;7.83;;
13967;SDS011;39536;52.198;9.920;2022-08-14T14:16:52;8.30;;;7.73;;
13967;SDS011;39536;52.198;9.920;2022-08-14T14:19:19;8.37;;;7.77;;
13967;SDS011;39536;52.198;9.920;2022-08-14T14:21:48;8.97;;;8.47;;
13967;SDS011;39536;52.198;9.920;2022-08-14T14:24:15;8.30;;;7.80;;
13967;SDS011;39536;52.198;9.920;2022-08-14T14:26:45;8.57;;;7.90;;
13967;SDS011;39536;52.198;9.920;2022-08-14T14:29:12;8.20;;;7.70;;
13967;SDS011;39536;52.198;9.920;2022-08-14T14:31:40;8.77;;;8.27;;
13967;SDS011;39536;52.198;9.920;2022-08-14T14:34:07;8.40;;;7.80;;
13967;SDS011;39536;52.198;9.920;2022-08-14T14:36:34;8.43;;;7.70;;
13967;SDS011;39536;52.198;9.920;2022-08-14T14:39:03;8.17;;;7.57;;
13967;SDS011;39536;52.198;9.920;2022-08-14T14:41:31;8.60;;;8.00;;